Terminal Aerodrome Forecast
Issued by NWS Omaha/Valley, NE

Home | Current Version | Previous Version | Text Only | Print | Product List | Glossary Off
Versions: 1 2 3 4 5 6 7 8 9 10 11 12 13 14 15 16 17 18 19 20 21 22 23 24 25 26 27 28 29 30 31 32 33 34 35 36 37 38 39 40 41 42 43 44 45 46

177
FTUS43 KOAX 252323
TAFOFK
TAF
KOFK 252323Z 2600/2624 34014G23KT P6SM -SHRA BKN008 OVC015
     FM260300 34015G24KT P6SM VCSH BKN010 OVC050
     FM261700 33017G25KT P6SM OVC020=

USA.gov is the U.S. government's official web portal to all federal, state and local government web resources and services.